createdAt,value
2022-10-06T00:02:36.040Z,100.00
2022-10-06T00:05:23.657Z,100.00
2022-10-06T00:08:11.286Z,100.00
2022-10-06T00:10:59.518Z,100.00
2022-10-06T00:13:47.572Z,100.00
2022-10-06T00:16:36.391Z,100.00
2022-10-06T00:19:23.894Z,100.00
2022-10-06T00:22:11.580Z,100.00
2022-10-06T00:24:59.019Z,100.00
2022-10-06T00:27:49.707Z,100.00
2022-10-06T00:30:37.365Z,100.00
2022-10-06T00:33:26.128Z,100.00
2022-10-06T00:36:13.970Z,100.00
2022-10-06T00:39:01.380Z,100.00
2022-10-06T00:41:48.775Z,100.00
2022-10-06T00:44:36.248Z,100.00
2022-10-06T00:47:27.056Z,100.00
2022-10-06T00:50:16.606Z,100.00
2022-10-06T00:53:06.146Z,100.00
2022-10-06T00:55:54.423Z,100.00
2022-10-06T00:58:41.762Z,100.00
2022-10-06T01:01:33.373Z,100.00
2022-10-06T01:04:25.241Z,100.00
2022-10-06T01:07:14.442Z,100.00
2022-10-06T01:10:02.162Z,100.00
2022-10-06T01:12:49.695Z,100.00
2022-10-06T01:15:41.022Z,100.00
2022-10-06T01:18:32.005Z,100.00
2022-10-06T01:21:31.227Z,100.00
2022-10-06T01:24:20.797Z,100.00
2022-10-06T01:27:12.449Z,100.00
2022-10-06T01:30:01.584Z,100.00
2022-10-06T01:32:49.490Z,100.00
2022-10-06T01:35:37.397Z,100.00
2022-10-06T01:38:25.959Z,100.00
2022-10-06T01:41:57.462Z,100.00
2022-10-06T01:44:50.739Z,100.00
2022-10-06T01:47:57.994Z,100.00
2022-10-06T01:51:12.223Z,100.00
2022-10-06T01:54:00.040Z,100.00
2022-10-06T01:56:49.084Z,100.00
2022-10-06T01:59:37.544Z,100.00
2022-10-06T02:02:25.805Z,100.00
2022-10-06T02:05:14.593Z,100.00
2022-10-06T02:08:03.302Z,100.00
2022-10-06T02:10:50.672Z,100.00
2022-10-06T02:13:40.614Z,100.00
2022-10-06T02:16:30.100Z,100.00
2022-10-06T02:19:18.007Z,100.00
2022-10-06T02:22:06.518Z,100.00
2022-10-06T02:24:54.508Z,100.00
2022-10-06T02:27:42.446Z,100.00
2022-10-06T02:30:31.907Z,100.00
2022-10-06T02:33:20.222Z,100.00
2022-10-06T02:36:09.877Z,100.00
2022-10-06T02:38:58.252Z,100.00
2022-10-06T02:41:46.730Z,100.00
2022-10-06T02:44:34.844Z,100.00
2022-10-06T02:47:24.381Z,100.00
2022-10-06T02:50:13.088Z,100.00
2022-10-06T02:53:00.748Z,100.00
2022-10-06T02:55:48.185Z,100.00
2022-10-06T02:58:36.044Z,100.00
2022-10-06T03:01:26.609Z,100.00
2022-10-06T03:04:16.060Z,100.00
2022-10-06T03:07:03.601Z,100.00
2022-10-06T03:09:51.201Z,100.00
2022-10-06T03:12:38.900Z,100.00
2022-10-06T03:15:26.801Z,100.00
2022-10-06T03:18:14.329Z,100.00
2022-10-06T03:21:03.826Z,100.00
2022-10-06T03:23:54.492Z,100.00
2022-10-06T03:26:45.232Z,100.00
2022-10-06T03:29:32.877Z,100.00
2022-10-06T03:32:20.143Z,100.00
2022-10-06T03:35:09.582Z,100.00
2022-10-06T03:38:00.690Z,100.00
2022-10-06T03:40:48.258Z,100.00
2022-10-06T03:43:36.868Z,100.00
2022-10-06T03:46:29.247Z,100.00
2022-10-06T03:49:16.919Z,100.00
2022-10-06T03:52:04.432Z,100.00
2022-10-06T03:54:53.082Z,100.00
2022-10-06T03:57:40.504Z,100.00
2022-10-06T04:00:27.935Z,100.00
2022-10-06T04:03:20.323Z,100.00
2022-10-06T04:06:13.310Z,100.00
2022-10-06T04:09:01.974Z,100.00
2022-10-06T04:11:51.729Z,100.00
2022-10-06T04:14:39.312Z,100.00
2022-10-06T04:17:27.018Z,100.00
2022-10-06T04:20:16.852Z,100.00
2022-10-06T04:23:06.652Z,100.00
2022-10-06T04:26:00.713Z,100.00
2022-10-06T04:28:50.334Z,100.00
2022-10-06T04:31:41.155Z,100.00
2022-10-06T04:34:28.579Z,100.00
2022-10-06T04:37:16.217Z,100.00
2022-10-06T04:40:04.249Z,100.00
2022-10-06T04:42:52.291Z,100.00
2022-10-06T04:45:41.120Z,100.00
2022-10-06T04:48:30.581Z,100.00
2022-10-06T04:51:20.224Z,100.00
2022-10-06T04:54:08.259Z,100.00
2022-10-06T04:56:58.857Z,100.00
2022-10-06T05:00:07.991Z,100.00
2022-10-06T05:03:00.575Z,100.00
2022-10-06T05:05:50.620Z,100.00
2022-10-06T05:08:39.068Z,100.00
2022-10-06T05:11:27.908Z,100.00
2022-10-06T05:14:15.564Z,100.00
2022-10-06T05:17:06.477Z,100.00
2022-10-06T05:19:55.461Z,100.00
2022-10-06T05:22:42.952Z,100.00
2022-10-06T05:25:30.478Z,100.00
2022-10-06T05:28:18.010Z,100.00
2022-10-06T05:31:08.685Z,100.00
2022-10-06T05:33:58.143Z,100.00
2022-10-06T05:36:47.071Z,100.00
2022-10-06T05:39:34.864Z,100.00
2022-10-06T05:42:26.175Z,100.00
2022-10-06T05:45:16.881Z,100.00
2022-10-06T05:48:04.950Z,100.00
2022-10-06T05:51:00.558Z,100.00
2022-10-06T05:53:50.028Z,100.00
2022-10-06T05:56:39.432Z,100.00
2022-10-06T05:59:27.061Z,100.00
2022-10-06T06:02:15.098Z,100.00
2022-10-06T06:05:03.100Z,96.21
2022-10-06T06:07:51.031Z,89.40
2022-10-06T06:10:39.862Z,84.60
2022-10-06T06:13:27.798Z,78.12
2022-10-06T06:16:16.705Z,72.97
2022-10-06T06:19:04.855Z,67.06
2022-10-06T06:21:53.431Z,60.80
2022-10-06T06:24:40.847Z,59.14
2022-10-06T06:27:29.960Z,54.08
2022-10-06T06:30:18.032Z,50.03
2022-10-06T06:33:06.106Z,45.24
2022-10-06T06:35:53.392Z,37.77
2022-10-06T06:38:41.723Z,33.83
2022-10-06T06:41:32.297Z,30.96
2022-10-06T06:44:22.201Z,31.17
2022-10-06T06:47:09.621Z,30.28
2022-10-06T06:50:00.353Z,32.07
2022-10-06T06:52:48.064Z,32.47
2022-10-06T06:55:36.119Z,34.32
2022-10-06T06:58:24.137Z,36.41
2022-10-06T07:01:15.366Z,42.63
2022-10-06T07:04:03.338Z,47.53
2022-10-06T07:06:58.403Z,57.53
2022-10-06T07:09:46.648Z,74.54
2022-10-06T07:12:34.754Z,90.55
2022-10-06T07:15:40.223Z,100.00
2022-10-06T07:18:47.340Z,100.00
2022-10-06T07:21:52.312Z,100.00
2022-10-06T07:24:57.719Z,100.00
2022-10-06T07:27:47.436Z,100.00
2022-10-06T07:30:40.420Z,100.00
2022-10-06T07:33:33.417Z,100.00
2022-10-06T07:36:22.471Z,100.00
2022-10-06T07:39:10.572Z,100.00
2022-10-06T07:41:59.059Z,100.00
2022-10-06T07:45:08.691Z,100.00
2022-10-06T07:47:59.913Z,100.00
2022-10-06T07:50:51.041Z,100.00
2022-10-06T07:53:39.312Z,100.00
2022-10-06T07:56:26.967Z,100.00
2022-10-06T07:59:14.917Z,100.00
2022-10-06T08:02:02.826Z,100.00
2022-10-06T08:04:51.345Z,100.00
2022-10-06T08:07:41.907Z,100.00
2022-10-06T08:10:30.068Z,100.00
2022-10-06T08:13:17.680Z,100.00
2022-10-06T08:16:06.573Z,100.00
2022-10-06T08:18:55.950Z,100.00
2022-10-06T08:21:43.812Z,100.00
2022-10-06T08:24:54.204Z,100.00
2022-10-06T08:27:44.182Z,100.00
2022-10-06T08:30:31.995Z,100.00
2022-10-06T08:33:21.513Z,100.00
2022-10-06T08:36:11.431Z,100.00
2022-10-06T08:38:59.531Z,100.00
2022-10-06T08:41:53.330Z,100.00
2022-10-06T08:44:45.616Z,100.00
2022-10-06T08:47:37.171Z,100.00
2022-10-06T08:50:28.635Z,100.00
2022-10-06T08:53:25.832Z,100.00
2022-10-06T08:56:19.191Z,100.00
2022-10-06T08:59:10.438Z,100.00
2022-10-06T09:01:58.641Z,100.00
2022-10-06T09:04:50.741Z,100.00
2022-10-06T09:07:46.044Z,100.00
2022-10-06T09:10:46.751Z,100.00
2022-10-06T09:13:39.965Z,100.00
2022-10-06T09:16:33.766Z,100.00
2022-10-06T09:19:33.483Z,100.00
2022-10-06T09:22:24.559Z,100.00
2022-10-06T09:25:18.206Z,100.00
2022-10-06T09:28:12.516Z,100.00
2022-10-06T09:31:04.023Z,100.00
2022-10-06T09:33:55.733Z,100.00
2022-10-06T09:37:01.974Z,100.00
2022-10-06T09:39:54.514Z,100.00
2022-10-06T09:42:57.632Z,100.00
2022-10-06T09:45:46.416Z,100.00
2022-10-06T09:48:34.360Z,100.00
2022-10-06T09:51:23.719Z,100.00
2022-10-06T09:54:14.754Z,100.00
2022-10-06T09:57:16.131Z,100.00
2022-10-06T10:00:26.404Z,100.00
2022-10-06T10:03:14.628Z,100.00
2022-10-06T10:06:02.892Z,100.00
2022-10-06T10:08:52.166Z,100.00
2022-10-06T10:11:57.451Z,100.00
2022-10-06T10:14:48.585Z,100.00
2022-10-06T10:17:45.825Z,100.00
2022-10-06T10:20:38.146Z,100.00
2022-10-06T10:23:31.980Z,100.00
2022-10-06T10:26:35.687Z,100.00
2022-10-06T10:29:46.370Z,100.00
2022-10-06T10:33:00.352Z,100.00
2022-10-06T10:35:52.952Z,100.00
2022-10-06T10:38:43.810Z,100.00
2022-10-06T10:41:47.390Z,100.00
2022-10-06T10:44:44.803Z,100.00
2022-10-06T10:47:37.965Z,100.00
2022-10-06T10:50:30.126Z,100.00
2022-10-06T10:53:23.949Z,100.00
2022-10-06T10:56:22.609Z,100.00
2022-10-06T10:59:25.217Z,97.83
2022-10-06T11:02:21.537Z,100.00
2022-10-06T11:05:28.207Z,100.00
2022-10-06T11:08:27.186Z,99.76
2022-10-06T11:11:29.924Z,99.01
2022-10-06T11:14:35.863Z,94.64
2022-10-06T11:17:40.061Z,91.68
2022-10-06T11:20:40.352Z,90.66
2022-10-06T11:23:47.795Z,90.24
2022-10-06T11:27:05.091Z,85.82
2022-10-06T11:30:03.763Z,85.39
2022-10-06T11:33:03.683Z,84.91
2022-10-06T11:35:51.559Z,85.69
2022-10-06T11:38:43.399Z,86.36
2022-10-06T11:41:35.554Z,85.29
2022-10-06T11:44:33.556Z,79.42
2022-10-06T11:47:35.017Z,77.52
2022-10-06T11:50:37.734Z,77.11
2022-10-06T11:53:39.946Z,76.91
2022-10-06T11:56:46.856Z,77.29
2022-10-06T11:59:37.944Z,73.40
2022-10-06T12:02:41.450Z,72.37
2022-10-06T12:05:55.707Z,71.33
2022-10-06T12:08:44.696Z,74.17
2022-10-06T12:11:40.895Z,72.41
2022-10-06T12:17:55.152Z,73.32
2022-10-06T12:21:06.478Z,72.55
2022-10-06T12:24:21.740Z,70.75
2022-10-06T12:27:29.971Z,73.78
2022-10-06T12:30:23.466Z,72.15
2022-10-06T12:33:19.453Z,69.71
2022-10-06T12:36:18.430Z,69.97
2022-10-06T12:39:22.127Z,70.33
2022-10-06T12:42:20.507Z,71.61
2022-10-06T12:45:17.615Z,68.68
2022-10-06T12:48:15.852Z,70.09
2022-10-06T12:51:18.282Z,68.24
2022-10-06T12:54:13.313Z,67.96
2022-10-06T12:57:01.965Z,66.04
2022-10-06T12:59:50.314Z,66.97
2022-10-06T13:02:38.205Z,65.82
2022-10-06T13:05:26.704Z,66.02
2022-10-06T13:08:25.613Z,66.60
2022-10-06T13:11:20.175Z,64.43
2022-10-06T13:14:14.694Z,65.06
2022-10-06T13:17:03.617Z,62.96
2022-10-06T13:19:52.175Z,63.70
2022-10-06T13:22:40.291Z,64.81
2022-10-06T13:25:36.743Z,66.27
2022-10-06T13:28:31.186Z,63.57
2022-10-06T13:31:24.101Z,62.51
2022-10-06T13:34:14.670Z,63.08
2022-10-06T13:37:03.203Z,62.03
2022-10-06T13:39:51.141Z,64.18
2022-10-06T13:42:40.872Z,63.57
2022-10-06T13:45:29.639Z,64.01
2022-10-06T13:48:22.171Z,62.54
2022-10-06T13:51:15.118Z,68.30
2022-10-06T13:54:07.744Z,63.32
2022-10-06T13:56:56.179Z,61.19
2022-10-06T13:59:45.593Z,60.56
2022-10-06T14:02:33.695Z,61.43
2022-10-06T14:05:26.766Z,62.17
2022-10-06T14:08:23.720Z,61.68
2022-10-06T14:11:12.326Z,61.17
2022-10-06T14:14:03.361Z,60.52
2022-10-06T14:16:54.331Z,60.46
2022-10-06T14:19:41.753Z,63.71
2022-10-06T14:22:34.257Z,63.98
2022-10-06T14:25:22.652Z,63.66
2022-10-06T14:28:10.272Z,63.12
2022-10-06T14:30:58.836Z,64.35
2022-10-06T14:33:52.318Z,64.57
2022-10-06T14:36:39.679Z,65.20
2022-10-06T14:39:28.370Z,65.85
2022-10-06T14:42:16.337Z,66.72
2022-10-06T14:45:04.445Z,67.64
2022-10-06T14:47:52.256Z,67.20
2022-10-06T14:50:43.172Z,69.04
2022-10-06T14:53:30.894Z,68.87
2022-10-06T14:56:18.523Z,66.11
2022-10-06T14:59:08.714Z,66.29
2022-10-06T15:01:56.599Z,66.69
2022-10-06T15:04:45.476Z,66.50
2022-10-06T15:07:53.548Z,66.81
2022-10-06T15:10:41.262Z,66.20
2022-10-06T15:13:32.071Z,67.50
2022-10-06T15:16:20.245Z,68.39
2022-10-06T15:19:09.293Z,65.16
2022-10-06T15:21:57.557Z,67.27
2022-10-06T15:24:50.252Z,70.16
2022-10-06T15:28:01.072Z,67.70
2022-10-06T15:30:48.618Z,69.88
2022-10-06T15:33:39.491Z,68.75
2022-10-06T15:36:27.320Z,69.26
2022-10-06T15:39:17.999Z,67.16
2022-10-06T15:42:10.521Z,68.07
2022-10-06T15:44:58.318Z,67.96
2022-10-06T15:47:46.654Z,70.73
2022-10-06T15:50:36.220Z,71.95
2022-10-06T15:53:24.009Z,74.45
2022-10-06T15:56:11.514Z,73.96
2022-10-06T15:59:00.880Z,74.94
2022-10-06T16:01:52.140Z,77.19
2022-10-06T16:04:55.513Z,77.65
2022-10-06T16:07:43.041Z,81.46
2022-10-06T16:10:30.379Z,81.92
2022-10-06T16:13:18.144Z,83.79
2022-10-06T16:16:07.642Z,86.14
2022-10-06T16:18:56.171Z,88.04
2022-10-06T16:21:46.889Z,89.35
2022-10-06T16:24:34.706Z,90.53
2022-10-06T16:27:22.654Z,91.66
2022-10-06T16:30:12.314Z,93.42
2022-10-06T16:33:00.996Z,94.63
2022-10-06T16:35:55.874Z,97.20
2022-10-06T16:38:44.964Z,97.78
2022-10-06T16:41:32.519Z,98.10
2022-10-06T16:44:20.225Z,99.70
2022-10-06T16:47:07.684Z,100.00
2022-10-06T16:49:56.545Z,100.00
2022-10-06T16:52:43.985Z,100.00
2022-10-06T16:55:31.643Z,100.00
2022-10-06T16:58:19.149Z,100.00
2022-10-06T17:01:07.755Z,100.00
2022-10-06T17:04:00.175Z,100.00
2022-10-06T17:06:51.054Z,100.00
2022-10-06T17:09:46.952Z,100.00
2022-10-06T17:12:44.298Z,100.00
2022-10-06T17:15:33.661Z,100.00
2022-10-06T17:18:21.547Z,100.00
2022-10-06T17:21:39.606Z,100.00
2022-10-06T17:24:22.557Z,100.00
2022-10-06T17:27:10.566Z,100.00
2022-10-06T17:29:58.755Z,100.00
2022-10-06T17:32:47.328Z,100.00
2022-10-06T17:35:39.117Z,100.00
2022-10-06T17:38:27.909Z,100.00
2022-10-06T17:41:19.681Z,100.00
2022-10-06T17:44:09.684Z,100.00
2022-10-06T17:47:00.280Z,100.00
2022-10-06T17:49:48.470Z,100.00
2022-10-06T17:52:39.237Z,100.00
2022-10-06T17:55:28.185Z,100.00
2022-10-06T17:58:18.840Z,100.00
2022-10-06T18:01:09.422Z,100.00
2022-10-06T18:03:57.850Z,100.00
2022-10-06T18:06:47.369Z,100.00
2022-10-06T18:09:35.804Z,100.00
2022-10-06T18:12:22.781Z,100.00
2022-10-06T18:15:15.174Z,100.00
2022-10-06T18:18:02.887Z,100.00
2022-10-06T18:20:50.741Z,100.00
2022-10-06T18:23:38.940Z,100.00
2022-10-06T18:26:26.777Z,100.00
2022-10-06T18:29:15.393Z,100.00
2022-10-06T18:38:21.731Z,100.00
2022-10-06T18:41:12.475Z,100.00
2022-10-06T18:44:00.708Z,100.00
2022-10-06T18:47:11.467Z,100.00
2022-10-06T18:50:00.621Z,100.00
2022-10-06T18:52:48.377Z,100.00
2022-10-06T18:55:36.617Z,100.00
2022-10-06T18:58:24.771Z,100.00
2022-10-06T19:01:13.071Z,100.00
2022-10-06T19:04:04.765Z,100.00
2022-10-06T19:06:56.447Z,100.00
2022-10-06T19:09:46.757Z,100.00
2022-10-06T19:12:34.911Z,100.00
2022-10-06T19:15:22.613Z,100.00
2022-10-06T19:18:09.968Z,100.00
2022-10-06T19:20:57.541Z,100.00
2022-10-06T19:23:46.922Z,100.00
2022-10-06T19:26:34.885Z,100.00
2022-10-06T19:29:23.607Z,100.00
2022-10-06T19:32:11.781Z,100.00
2022-10-06T19:34:59.342Z,100.00
2022-10-06T19:37:48.155Z,100.00
2022-10-06T19:40:37.819Z,100.00
2022-10-06T19:43:24.882Z,100.00
2022-10-06T19:46:12.931Z,100.00
2022-10-06T19:49:05.622Z,100.00
2022-10-06T19:51:54.275Z,100.00
2022-10-06T19:54:42.229Z,100.00
2022-10-06T19:57:32.522Z,100.00
2022-10-06T20:00:20.157Z,100.00
2022-10-06T20:03:08.573Z,100.00
2022-10-06T20:05:56.040Z,100.00
2022-10-06T20:08:44.354Z,100.00
2022-10-06T20:11:31.978Z,100.00
2022-10-06T20:14:23.859Z,100.00
2022-10-06T20:17:11.328Z,100.00
2022-10-06T20:19:59.242Z,100.00
2022-10-06T20:22:47.318Z,100.00
2022-10-06T20:25:36.824Z,100.00
2022-10-06T20:28:24.338Z,100.00
2022-10-06T20:31:22.819Z,100.00
2022-10-06T20:34:14.653Z,100.00
2022-10-06T20:37:04.714Z,100.00
2022-10-06T20:40:09.924Z,100.00
2022-10-06T20:42:59.391Z,100.00
2022-10-06T20:45:47.036Z,100.00
2022-10-06T20:48:36.590Z,100.00
2022-10-06T20:51:27.657Z,100.00
2022-10-06T20:54:16.334Z,100.00
2022-10-06T20:57:07.262Z,100.00
2022-10-06T20:59:54.842Z,100.00
2022-10-06T21:02:42.466Z,100.00
2022-10-06T21:05:32.743Z,100.00
2022-10-06T21:08:20.338Z,100.00
2022-10-06T21:11:07.889Z,100.00
2022-10-06T21:13:55.886Z,100.00
2022-10-06T21:16:46.403Z,100.00
2022-10-06T21:19:37.904Z,100.00
2022-10-06T21:22:29.441Z,100.00
2022-10-06T21:25:17.420Z,100.00
2022-10-06T21:28:05.349Z,100.00
2022-10-06T21:30:54.624Z,100.00
2022-10-06T21:33:44.372Z,100.00
2022-10-06T21:36:32.625Z,100.00
2022-10-06T21:39:21.613Z,100.00
2022-10-06T21:42:09.426Z,100.00
2022-10-06T21:44:56.817Z,100.00
2022-10-06T21:47:44.737Z,100.00
2022-10-06T21:50:32.341Z,100.00
2022-10-06T21:53:19.839Z,100.00
2022-10-06T21:56:09.000Z,100.00
2022-10-06T21:59:10.239Z,100.00
2022-10-06T22:01:58.076Z,100.00
2022-10-06T22:04:46.053Z,100.00
2022-10-06T22:07:33.951Z,100.00
2022-10-06T22:10:21.905Z,100.00
2022-10-06T22:13:13.906Z,100.00
2022-10-06T22:16:04.287Z,100.00
2022-10-06T22:18:52.901Z,100.00
2022-10-06T22:21:43.071Z,100.00
2022-10-06T22:24:30.955Z,100.00
2022-10-06T22:27:20.060Z,100.00
2022-10-06T22:30:11.185Z,100.00
2022-10-06T22:32:58.897Z,100.00
2022-10-06T22:35:52.975Z,100.00
2022-10-06T22:38:41.351Z,100.00
2022-10-06T22:41:29.991Z,100.00
2022-10-06T22:44:17.812Z,100.00
2022-10-06T22:47:09.648Z,100.00
2022-10-06T22:49:57.775Z,100.00
2022-10-06T22:52:45.408Z,100.00
2022-10-06T22:55:32.956Z,100.00
2022-10-06T22:58:24.150Z,100.00
2022-10-06T23:01:13.904Z,100.00
2022-10-06T23:04:03.043Z,100.00
2022-10-06T23:06:50.849Z,100.00
2022-10-06T23:09:38.376Z,100.00
2022-10-06T23:12:26.493Z,100.00
2022-10-06T23:15:14.729Z,100.00
2022-10-06T23:18:03.704Z,100.00
2022-10-06T23:20:52.618Z,100.00
2022-10-06T23:23:40.308Z,100.00
2022-10-06T23:26:28.903Z,100.00
2022-10-06T23:29:16.775Z,100.00
2022-10-06T23:32:04.507Z,100.00
2022-10-06T23:34:52.793Z,100.00
2022-10-06T23:37:42.124Z,100.00
2022-10-06T23:40:30.117Z,100.00
2022-10-06T23:43:18.243Z,100.00
2022-10-06T23:46:06.067Z,100.00
2022-10-06T23:48:53.513Z,100.00
2022-10-06T23:51:40.939Z,100.00
2022-10-06T23:54:30.155Z,100.00
2022-10-06T23:57:17.681Z,100.00
